createdAt,value
2022-09-24T00:00:57.852Z,3.90
2022-09-24T00:03:51.802Z,4.20
2022-09-24T00:06:42.308Z,3.15
2022-09-24T00:09:30.844Z,3.78
2022-09-24T00:12:19.255Z,5.35
2022-09-24T00:15:09.258Z,3.47
2022-09-24T00:17:58.058Z,4.72
2022-09-24T00:20:47.753Z,3.30
2022-09-24T00:23:36.266Z,5.15
2022-09-24T00:26:42.902Z,4.75
2022-09-24T00:29:32.944Z,2.50
2022-09-24T00:32:22.480Z,2.53
2022-09-24T00:35:11.225Z,2.78
2022-09-24T00:38:01.300Z,2.70
2022-09-24T00:40:50.304Z,3.10
2022-09-24T00:43:39.662Z,4.10
2022-09-24T00:46:29.878Z,1.92
2022-09-24T00:49:20.621Z,6.47
2022-09-24T00:52:09.153Z,2.50
2022-09-24T00:54:58.988Z,2.50
2022-09-24T00:57:50.991Z,4.22
2022-09-24T01:00:44.664Z,3.22
2022-09-24T01:03:34.801Z,2.53
2022-09-24T01:06:23.407Z,2.42
2022-09-24T01:09:12.181Z,4.55
2022-09-24T01:12:06.417Z,4.38
2022-09-24T01:15:04.393Z,2.05
2022-09-24T01:17:59.185Z,2.35
2022-09-24T01:21:21.196Z,2.50
2022-09-24T01:24:41.818Z,4.22
2022-09-24T01:27:44.518Z,2.95
2022-09-24T01:30:38.166Z,2.47
2022-09-24T01:33:30.115Z,2.25
2022-09-24T01:36:19.440Z,2.17
2022-09-24T01:39:09.082Z,1.75
2022-09-24T01:41:57.687Z,2.72
2022-09-24T01:44:46.265Z,3.83
2022-09-24T01:47:39.885Z,2.42
2022-09-24T01:50:29.990Z,1.92
2022-09-24T01:53:19.433Z,2.10
2022-09-24T01:56:11.153Z,2.45
2022-09-24T01:59:03.456Z,1.90
2022-09-24T02:01:55.362Z,2.53
2022-09-24T02:04:47.548Z,1.70
2022-09-24T02:07:39.165Z,2.75
2022-09-24T02:10:30.799Z,1.98
2022-09-24T02:13:20.047Z,1.80
2022-09-24T02:16:10.403Z,1.77
2022-09-24T02:19:02.470Z,1.88
2022-09-24T02:21:52.659Z,1.88
2022-09-24T02:24:46.786Z,1.65
2022-09-24T02:27:35.260Z,2.83
2022-09-24T02:30:23.638Z,1.63
2022-09-24T02:33:35.863Z,1.85
2022-09-24T02:36:25.118Z,2.88
2022-09-24T02:39:15.008Z,1.67
2022-09-24T02:42:05.460Z,2.22
2022-09-24T02:44:57.343Z,1.70
2022-09-24T02:47:45.774Z,1.73
2022-09-24T02:50:34.180Z,1.67
2022-09-24T02:53:22.801Z,1.60
2022-09-24T02:56:12.668Z,2.00
2022-09-24T02:59:01.827Z,1.55
2022-09-24T03:01:52.080Z,2.08
2022-09-24T03:04:42.948Z,1.67
2022-09-24T03:07:31.374Z,1.60
2022-09-24T03:10:19.868Z,2.60
2022-09-24T03:13:10.957Z,3.42
2022-09-24T03:15:59.429Z,1.70
2022-09-24T03:18:48.110Z,1.80
2022-09-24T03:21:36.548Z,1.38
2022-09-24T03:24:25.053Z,4.47
2022-09-24T03:27:14.062Z,1.40
2022-09-24T03:30:21.698Z,1.45
2022-09-24T03:33:10.215Z,2.55
2022-09-24T03:35:59.925Z,1.60
2022-09-24T03:38:50.152Z,1.48
2022-09-24T03:41:38.575Z,4.80
2022-09-24T03:44:27.196Z,1.48
2022-09-24T03:47:17.045Z,1.50
2022-09-24T03:50:06.163Z,1.55
2022-09-24T03:52:54.807Z,2.60
2022-09-24T03:55:46.770Z,1.38
2022-09-24T03:58:38.714Z,1.60
2022-09-24T04:01:27.545Z,1.50
2022-09-24T04:04:17.656Z,4.57
2022-09-24T04:07:06.348Z,1.45
2022-09-24T04:09:54.760Z,1.25
2022-09-24T04:12:45.654Z,1.63
2022-09-24T04:15:34.178Z,1.42
2022-09-24T04:18:22.825Z,1.48
2022-09-24T04:21:12.576Z,4.22
2022-09-24T04:24:01.069Z,1.35
2022-09-24T04:26:50.359Z,5.13
2022-09-24T04:29:38.794Z,1.42
2022-09-24T04:32:28.465Z,1.40
2022-09-24T04:35:17.105Z,1.00
2022-09-24T04:38:06.959Z,1.42
2022-09-24T04:40:55.430Z,1.65
2022-09-24T04:43:46.743Z,2.28
2022-09-24T04:46:35.212Z,1.27
2022-09-24T04:49:24.242Z,1.27
2022-09-24T04:52:14.883Z,1.45
2022-09-24T04:55:16.909Z,3.08
2022-09-24T04:58:06.163Z,1.13
2022-09-24T05:00:54.704Z,1.92
2022-09-24T05:03:43.726Z,1.95
2022-09-24T05:06:32.104Z,1.38
2022-09-24T05:09:20.576Z,1.15
2022-09-24T05:12:10.659Z,1.60
2022-09-24T05:14:59.204Z,1.17
2022-09-24T05:17:48.212Z,2.80
2022-09-24T05:20:36.769Z,4.15
2022-09-24T05:23:25.144Z,2.45
2022-09-24T05:26:31.210Z,1.52
2022-09-24T05:29:21.189Z,1.45
2022-09-24T05:32:11.400Z,1.40
2022-09-24T05:34:59.854Z,1.17
2022-09-24T05:37:49.665Z,1.63
2022-09-24T05:40:50.517Z,1.55
2022-09-24T05:43:39.045Z,1.48
2022-09-24T05:46:29.458Z,1.85
2022-09-24T05:49:18.955Z,1.40
2022-09-24T05:52:08.109Z,1.55
2022-09-24T05:54:57.133Z,1.33
2022-09-24T05:57:45.573Z,1.58
2022-09-24T06:00:34.197Z,1.52
2022-09-24T06:03:24.102Z,1.00
2022-09-24T06:06:12.552Z,1.40
2022-09-24T06:09:01.084Z,1.40
2022-09-24T06:11:51.088Z,1.15
2022-09-24T06:14:41.877Z,2.92
2022-09-24T06:17:31.322Z,1.35
2022-09-24T06:20:21.653Z,1.33
2022-09-24T06:23:10.154Z,1.35
2022-09-24T06:25:58.550Z,1.50
2022-09-24T06:28:49.164Z,3.47
2022-09-24T06:31:37.622Z,1.40
2022-09-24T06:34:26.097Z,1.70
2022-09-24T06:37:15.917Z,1.38
2022-09-24T06:40:04.320Z,5.38
2022-09-24T06:42:53.523Z,1.98
2022-09-24T06:45:44.063Z,1.17
2022-09-24T06:48:32.804Z,1.88
2022-09-24T06:51:22.254Z,2.25
2022-09-24T06:54:12.062Z,1.40
2022-09-24T06:57:00.517Z,4.53
2022-09-24T06:59:50.948Z,0.88
2022-09-24T07:02:39.433Z,1.35
2022-09-24T07:05:27.963Z,2.13
2022-09-24T07:08:16.385Z,1.35
2022-09-24T07:11:08.693Z,4.05
2022-09-24T07:13:59.519Z,2.72
2022-09-24T07:16:49.231Z,1.40
2022-09-24T07:19:38.293Z,2.22
2022-09-24T07:22:27.709Z,3.70
2022-09-24T07:25:16.504Z,4.32
2022-09-24T07:28:07.903Z,3.75
2022-09-24T07:31:00.538Z,3.13
2022-09-24T07:33:49.089Z,3.17
2022-09-24T07:36:37.567Z,5.28
2022-09-24T07:39:26.335Z,3.58
2022-09-24T07:42:14.711Z,3.20
2022-09-24T07:45:04.834Z,3.05
2022-09-24T07:47:59.633Z,4.85
2022-09-24T07:50:48.040Z,2.50
2022-09-24T07:53:36.491Z,2.53
2022-09-24T07:56:25.446Z,3.08
2022-09-24T07:59:13.901Z,3.85
2022-09-24T08:02:03.792Z,3.40
2022-09-24T08:04:52.251Z,9.65
2022-09-24T08:07:40.798Z,5.03
2022-09-24T08:10:30.111Z,6.15
2022-09-24T08:13:18.528Z,2.92
2022-09-24T08:16:08.123Z,2.90
2022-09-24T08:18:57.977Z,2.35
2022-09-24T08:21:48.622Z,4.13
2022-09-24T08:24:37.077Z,3.53
2022-09-24T08:27:26.435Z,4.78
2022-09-24T08:30:15.810Z,4.15
2022-09-24T08:33:06.671Z,2.70
2022-09-24T08:35:56.571Z,2.38
2022-09-24T08:38:45.070Z,9.80
2022-09-24T08:41:53.726Z,3.67
2022-09-24T08:45:01.495Z,3.20
2022-09-24T08:47:52.111Z,2.13
2022-09-24T08:50:46.722Z,2.55
2022-09-24T08:53:44.471Z,3.13
2022-09-24T08:56:36.163Z,2.97
2022-09-24T08:59:30.343Z,2.78
2022-09-24T09:02:32.410Z,2.45
2022-09-24T09:05:27.681Z,2.58
2022-09-24T09:08:47.173Z,2.72
2022-09-24T09:11:33.615Z,11.55
2022-09-24T09:14:28.090Z,2.63
2022-09-24T09:17:29.316Z,5.78
2022-09-24T09:20:20.257Z,3.90
2022-09-24T09:23:16.713Z,9.38
2022-09-24T09:26:06.872Z,5.32
2022-09-24T09:29:00.847Z,5.25
2022-09-24T09:31:59.986Z,2.30
2022-09-24T09:34:54.829Z,4.18
2022-09-24T09:37:49.053Z,4.18
2022-09-24T09:40:41.671Z,2.45
2022-09-24T09:43:30.869Z,3.45
2022-09-24T09:46:24.989Z,1.60
2022-09-24T09:49:15.642Z,2.42
2022-09-24T09:52:06.495Z,5.43
2022-09-24T09:54:54.970Z,1.80
2022-09-24T09:57:43.452Z,2.38
2022-09-24T10:00:36.535Z,3.50
2022-09-24T10:03:31.149Z,1.80
2022-09-24T10:06:25.528Z,2.83
2022-09-24T10:09:17.387Z,2.45
2022-09-24T10:12:17.795Z,2.55
2022-09-24T10:15:17.972Z,2.00
2022-09-24T10:18:06.603Z,3.33
2022-09-24T10:20:58.342Z,1.48
2022-09-24T10:23:48.530Z,1.85
2022-09-24T10:26:43.847Z,2.03
2022-09-24T10:29:52.105Z,1.40
2022-09-24T10:32:40.945Z,1.63
2022-09-24T10:35:31.324Z,2.38
2022-09-24T10:38:23.706Z,2.08
2022-09-24T10:41:26.967Z,1.90
2022-09-24T10:44:16.346Z,1.65
2022-09-24T10:47:21.507Z,1.40
2022-09-24T10:50:26.118Z,1.60
2022-09-24T10:53:16.133Z,1.42
2022-09-24T10:56:13.767Z,2.60
2022-09-24T10:59:14.475Z,3.80
2022-09-24T11:02:21.694Z,2.25
2022-09-24T11:05:13.333Z,1.95
2022-09-24T11:08:11.308Z,8.95
2022-09-24T11:11:19.535Z,2.08
2022-09-24T11:14:21.258Z,1.95
2022-09-24T11:17:25.712Z,1.45
2022-09-24T11:20:29.800Z,1.75
2022-09-24T11:23:37.258Z,1.63
2022-09-24T11:26:31.129Z,1.77
2022-09-24T11:29:36.869Z,1.55
2022-09-24T11:32:30.509Z,2.67
2022-09-24T11:35:30.522Z,1.48
2022-09-24T11:38:25.084Z,1.23
2022-09-24T11:41:22.123Z,2.35
2022-09-24T11:44:43.901Z,1.50
2022-09-24T11:47:49.401Z,1.60
2022-09-24T11:50:47.984Z,1.98
2022-09-24T11:53:40.451Z,1.45
2022-09-24T11:56:32.966Z,1.02
2022-09-24T11:59:34.002Z,0.90
2022-09-24T12:02:25.931Z,1.10
2022-09-24T12:05:17.499Z,3.40
2022-09-24T12:08:11.734Z,1.92
2022-09-24T12:11:04.156Z,2.25
2022-09-24T12:13:55.554Z,2.08
2022-09-24T12:16:47.896Z,2.47
2022-09-24T12:19:40.886Z,1.27
2022-09-24T12:22:31.209Z,0.82
2022-09-24T12:25:19.578Z,1.80
2022-09-24T12:28:11.807Z,1.17
2022-09-24T12:31:34.508Z,0.80
2022-09-24T12:34:29.420Z,1.35
2022-09-24T12:37:20.154Z,1.40
2022-09-24T12:40:20.192Z,1.25
2022-09-24T12:43:19.022Z,1.35
2022-09-24T12:46:09.806Z,1.48
2022-09-24T12:48:58.433Z,0.93
2022-09-24T12:51:48.508Z,0.80
2022-09-24T12:54:38.486Z,3.83
2022-09-24T12:57:30.795Z,1.27
2022-09-24T13:00:37.686Z,1.30
2022-09-24T13:03:34.918Z,1.30
2022-09-24T13:06:32.578Z,0.80
2022-09-24T13:09:37.389Z,2.20
2022-09-24T13:12:33.149Z,3.50
2022-09-24T13:15:28.768Z,1.60
2022-09-24T13:18:24.176Z,7.32
2022-09-24T13:21:21.164Z,4.60
2022-09-24T13:24:12.959Z,2.17
2022-09-24T13:27:22.206Z,2.10
2022-09-24T13:30:19.524Z,4.68
2022-09-24T13:33:21.226Z,1.45
2022-09-24T13:36:13.774Z,5.30
2022-09-24T13:39:06.691Z,4.28
2022-09-24T13:42:01.116Z,4.20
2022-09-24T13:44:54.300Z,1.98
2022-09-24T13:47:45.677Z,1.40
2022-09-24T13:50:36.336Z,1.08
2022-09-24T13:53:34.490Z,1.00
2022-09-24T13:56:23.001Z,3.35
2022-09-24T13:59:13.567Z,1.48
2022-09-24T14:02:03.764Z,4.13
2022-09-24T14:04:55.717Z,3.50
2022-09-24T14:07:44.298Z,2.42
2022-09-24T14:10:33.133Z,1.17
2022-09-24T14:13:24.556Z,1.27
2022-09-24T14:16:17.900Z,2.13
2022-09-24T14:19:08.127Z,1.58
2022-09-24T14:21:59.448Z,1.13
2022-09-24T14:24:55.503Z,4.32
2022-09-24T14:27:45.990Z,0.80
2022-09-24T14:30:35.301Z,1.13
2022-09-24T14:33:25.957Z,1.23
2022-09-24T14:36:16.165Z,0.70
2022-09-24T14:39:06.593Z,0.70
2022-09-24T14:41:56.833Z,2.40
2022-09-24T14:44:47.257Z,1.10
2022-09-24T14:47:37.094Z,1.73
2022-09-24T14:50:30.030Z,5.35
2022-09-24T14:53:33.009Z,0.93
2022-09-24T14:56:22.423Z,2.13
2022-09-24T14:59:15.675Z,3.20
2022-09-24T15:02:22.635Z,3.10
2022-09-24T15:05:11.370Z,3.08
2022-09-24T15:08:18.563Z,1.98
2022-09-24T15:11:08.413Z,1.00
2022-09-24T15:14:01.316Z,1.15
2022-09-24T15:16:50.922Z,2.35
2022-09-24T15:19:43.115Z,2.13
2022-09-24T15:22:32.167Z,2.42
2022-09-24T15:25:20.603Z,1.40
2022-09-24T15:28:15.710Z,0.57
2022-09-24T15:31:05.252Z,0.95
2022-09-24T15:33:53.783Z,9.18
2022-09-24T15:36:42.178Z,1.02
2022-09-24T15:39:31.965Z,1.25
2022-09-24T15:42:21.786Z,1.05
2022-09-24T15:45:17.547Z,1.20
2022-09-24T15:48:07.223Z,1.73
2022-09-24T15:50:56.182Z,2.30
2022-09-24T15:53:44.852Z,3.22
2022-09-24T15:56:35.201Z,2.95
2022-09-24T15:59:24.574Z,2.35
2022-09-24T16:02:18.813Z,1.75
2022-09-24T16:05:11.539Z,4.53
2022-09-24T16:07:59.969Z,4.28
2022-09-24T16:10:48.408Z,2.42
2022-09-24T16:13:37.042Z,2.38
2022-09-24T16:16:25.785Z,4.10
2022-09-24T16:19:17.760Z,3.42
2022-09-24T16:22:06.592Z,2.65
2022-09-24T16:24:55.202Z,10.30
2022-09-24T16:27:43.969Z,4.78
2022-09-24T16:30:37.631Z,4.53
2022-09-24T16:33:27.239Z,3.10
2022-09-24T16:36:16.918Z,2.72
2022-09-24T16:39:05.873Z,6.90
2022-09-24T16:41:54.456Z,5.57
2022-09-24T16:44:42.870Z,4.80
2022-09-24T16:47:31.257Z,3.55
2022-09-24T16:50:23.428Z,3.30
2022-09-24T16:53:13.120Z,5.13
2022-09-24T16:56:08.805Z,10.60
2022-09-24T16:58:58.022Z,19.48
2022-09-24T17:01:46.623Z,50.78
2022-09-24T17:04:35.266Z,36.75
2022-09-24T17:07:24.048Z,34.50
2022-09-24T17:10:16.154Z,76.93
2022-09-24T17:13:08.073Z,81.57
2022-09-24T17:15:56.506Z,113.25
2022-09-24T17:18:46.101Z,110.72
2022-09-24T17:21:34.473Z,129.55
2022-09-24T17:24:22.908Z,105.25
2022-09-24T17:27:12.724Z,99.70
2022-09-24T17:30:01.185Z,103.68
2022-09-24T17:32:49.601Z,123.38
2022-09-24T17:35:37.945Z,78.68
2022-09-24T17:38:26.577Z,57.20
2022-09-24T17:41:15.893Z,45.83
2022-09-24T17:44:05.612Z,42.30
2022-09-24T17:46:54.024Z,38.05
2022-09-24T17:49:42.580Z,26.70
2022-09-24T17:52:30.976Z,23.05
2022-09-24T17:55:19.414Z,21.02
2022-09-24T17:58:09.340Z,21.50
2022-09-24T18:01:05.292Z,20.10
2022-09-24T18:03:54.429Z,17.70
2022-09-24T18:06:44.207Z,18.80
2022-09-24T18:09:32.701Z,12.93
2022-09-24T18:12:21.140Z,15.50
2022-09-24T18:15:09.977Z,10.63
2022-09-24T18:17:59.973Z,9.15
2022-09-24T18:20:48.384Z,12.30
2022-09-24T18:23:36.979Z,6.70
2022-09-24T18:26:26.993Z,12.68
2022-09-24T18:29:16.637Z,7.20
2022-09-24T18:32:05.502Z,11.30
2022-09-24T18:34:55.230Z,9.88
2022-09-24T18:37:44.767Z,8.98
2022-09-24T18:40:33.509Z,6.35
2022-09-24T18:43:22.256Z,8.45
2022-09-24T18:46:12.739Z,8.05
2022-09-24T18:49:02.032Z,7.18
2022-09-24T18:51:52.343Z,7.82
2022-09-24T18:54:40.925Z,6.82
2022-09-24T18:57:29.414Z,6.75
2022-09-24T19:00:32.010Z,6.85
2022-09-24T19:03:20.392Z,10.20
2022-09-24T19:06:10.483Z,5.22
2022-09-24T19:09:00.322Z,7.30
2022-09-24T19:11:49.423Z,5.90
2022-09-24T19:14:37.840Z,9.55
2022-09-24T19:17:26.642Z,10.15
2022-09-24T19:20:15.107Z,5.18
2022-09-24T19:23:03.728Z,6.97
2022-09-24T19:25:54.427Z,7.35
2022-09-24T19:28:43.589Z,5.25
2022-09-24T19:31:35.882Z,10.90
2022-09-24T19:34:24.331Z,4.80
2022-09-24T19:37:12.732Z,5.95
2022-09-24T19:40:01.362Z,8.48
2022-09-24T19:42:51.189Z,5.63
2022-09-24T19:45:39.591Z,4.68
2022-09-24T19:48:29.231Z,6.20
2022-09-24T19:51:20.441Z,4.13
2022-09-24T19:54:09.678Z,9.20
2022-09-24T19:56:58.253Z,8.85
2022-09-24T19:59:48.142Z,8.70
2022-09-24T20:02:37.008Z,8.25
2022-09-24T20:05:25.729Z,8.23
2022-09-24T20:08:14.859Z,8.27
2022-09-24T20:11:05.026Z,11.02
2022-09-24T20:13:54.961Z,6.95
2022-09-24T20:16:44.945Z,4.15
2022-09-24T20:19:36.155Z,7.28
2022-09-24T20:22:27.210Z,5.00
2022-09-24T20:25:15.969Z,4.20
2022-09-24T20:28:03.492Z,8.07
2022-09-24T20:30:52.155Z,4.78
2022-09-24T20:33:42.512Z,4.75
2022-09-24T20:36:32.175Z,4.35
2022-09-24T20:39:20.807Z,4.93
2022-09-24T20:42:09.601Z,4.32
2022-09-24T20:45:03.754Z,5.30
2022-09-24T20:47:54.507Z,5.85
2022-09-24T20:50:44.358Z,5.95
2022-09-24T20:53:33.624Z,4.20
2022-09-24T20:56:24.559Z,4.88
2022-09-24T20:59:13.821Z,6.10
2022-09-24T21:02:02.715Z,5.50
2022-09-24T21:04:52.346Z,4.32
2022-09-24T21:07:42.695Z,6.93
2022-09-24T21:10:31.855Z,8.65
2022-09-24T21:13:20.995Z,7.45
2022-09-24T21:16:10.171Z,6.15
2022-09-24T21:19:00.491Z,6.20
2022-09-24T21:21:48.913Z,7.15
2022-09-24T21:24:39.697Z,5.45
2022-09-24T21:27:28.090Z,7.22
2022-09-24T21:30:16.545Z,6.53
2022-09-24T21:33:05.179Z,6.32
2022-09-24T21:35:54.456Z,7.45
2022-09-24T21:38:43.104Z,5.55
2022-09-24T21:41:34.660Z,6.65
2022-09-24T21:44:23.291Z,6.63
2022-09-24T21:47:11.784Z,6.68
2022-09-24T21:50:00.292Z,8.73
2022-09-24T21:52:51.170Z,8.90
2022-09-24T21:55:40.915Z,6.97
2022-09-24T21:58:31.406Z,10.82
2022-09-24T22:01:22.936Z,5.63
2022-09-24T22:04:12.419Z,5.60
2022-09-24T22:07:00.986Z,5.65
2022-09-24T22:09:49.982Z,8.48
2022-09-24T22:12:38.980Z,5.80
2022-09-24T22:15:28.791Z,5.82
2022-09-24T22:18:17.332Z,6.60
2022-09-24T22:21:09.578Z,7.00
2022-09-24T22:23:58.502Z,8.32
2022-09-24T22:26:47.084Z,6.72
2022-09-24T22:29:35.475Z,5.97
2022-09-24T22:32:26.382Z,6.00
2022-09-24T22:35:32.967Z,9.23
2022-09-24T22:38:22.855Z,5.88
2022-09-24T22:41:12.163Z,5.68
2022-09-24T22:44:00.802Z,6.68
2022-09-24T22:46:49.290Z,6.97
2022-09-24T22:49:39.194Z,5.82
2022-09-24T22:52:28.295Z,5.63
2022-09-24T22:55:16.805Z,7.22
2022-09-24T22:58:05.198Z,6.63
2022-09-24T23:00:53.611Z,6.47
2022-09-24T23:03:42.317Z,5.45
2022-09-24T23:06:35.890Z,6.28
2022-09-24T23:09:24.345Z,6.07
2022-09-24T23:12:12.997Z,5.05
2022-09-24T23:15:01.350Z,5.45
2022-09-24T23:17:49.867Z,6.70
2022-09-24T23:20:39.759Z,6.43
2022-09-24T23:23:29.543Z,6.13
2022-09-24T23:26:20.621Z,6.78
2022-09-24T23:29:09.360Z,5.30
2022-09-24T23:31:57.996Z,10.18
2022-09-24T23:34:46.975Z,6.13
2022-09-24T23:37:36.120Z,5.07
2022-09-24T23:40:29.505Z,6.82
2022-09-24T23:43:18.097Z,8.25
2022-09-24T23:46:07.055Z,6.07
2022-09-24T23:48:55.842Z,5.13
2022-09-24T23:51:45.008Z,8.90
2022-09-24T23:54:37.448Z,5.38
2022-09-24T23:57:27.278Z,5.43
